Latest Weather Observations for Gingin Airport

IDW60801

Issued at 4:33 am WST Tuesday 7 December 2021 (issued every 10 minutes, with the page automatically refreshed every 10 minutes)

About weather observations | Map of weather stations | Latest weather observations for WA | Other Formats
Station Details ID: 009178 Name: GINGIN AERO Lat: -31.46 Lon: 115.86 Height: 73.0 m
Data from the previous 72 hours. | See also: Recent months at Gingin Airport
Date/Time
WST
Temp
°C
App
Temp
°C
Dew
Point
°C
Rel
Hum
%
Delta-T
°C
Wind Press
QNH
hPa
Press
MSL
hPa
Rain since
9am
mm
Dir  Spd
km/h
Gust
km/h
Spd
kts
Gust
kts
07/04:30am 16.0 9.1 8.7 62 3.7 ESE 35 52 19 28 1012.9 1012.6 0.0
07/04:29am 16.0 9.4 8.7 62 3.7 ESE 33 52 18 28 1012.9 1012.6 0.0
07/04:00am 16.1 9.2 8.8 62 3.8 ESE 35 50 19 27 1012.8 1012.5 0.0
07/03:30am 16.0 9.1 8.7 62 3.7 ESE 35 50 19 27 1012.7 1012.4 0.0
07/03:00am 16.0 9.4 8.7 62 3.7 ESE 33 54 18 29 1013.1 1012.8 0.0
07/02:44am 16.0 9.6 8.7 62 3.7 ESE 32 52 17 28 1013.1 1012.8 0.0
07/02:30am 16.0 10.0 8.7 62 3.7 ESE 30 41 16 22 1013.2 1012.9 0.0
07/02:11am 16.1 10.5 8.8 62 3.8 ESE 28 46 15 25 1013.3 1013.0 0.0
07/02:00am 16.2 9.8 8.7 61 3.8 ESE 32 44 17 24 1013.2 1012.9 0.0
07/01:30am 16.4 10.5 8.9 61 3.9 ESE 30 44 16 24 1013.1 1012.8 0.0
07/01:12am 16.6 10.3 8.8 60 4.0 ESE 32 50 17 27 1013.0 1012.7 0.0
07/01:00am 16.7 10.3 8.7 59 4.1 ESE 32 41 17 22 1013.1 1012.8 0.0
07/12:57am 16.8 10.3 8.8 59 4.1 ESE 33 52 18 28 1013.1 1012.8 0.0
07/12:30am 17.3 11.4 9.0 58 4.3 ESE 30 43 16 23 1012.9 1012.6 0.0
07/12:02am 17.8 9.8 8.9 56 4.6 ESE 41 59 22 32 1012.9 1012.6 0.0
07/12:00am 17.9 9.5 9.0 56 4.6 ESE 43 59 23 32 1013.0 1012.7 0.0
 
Date/Time
WST
Temp
°C
App
Temp
°C
Dew
Point
°C
Rel
Hum
%
Delta-T
°C
Wind Press
QNH
hPa
Press
MSL
hPa
Rain since
9am
mm
Dir  Spd
km/h
Gust
km/h
Spd
kts
Gust
kts
06/11:51pm 18.3 11.8 8.8 54 4.9 ESE 33 59 18 32 1013.0 1012.7 0.0
06/11:30pm 19.2 12.7 9.1 52 5.3 ESE 33 46 18 25 1012.9 1012.6 0.0
06/11:09pm 20.1 13.7 9.4 50 5.7 SE 33 59 18 32 1012.9 1012.6 0.0
06/11:00pm 20.4 13.6 9.3 49 5.9 ESE 35 46 19 25 1012.7 1012.4 0.0
06/10:40pm 21.0 15.2 9.6 48 6.1 ESE 30 48 16 26 1012.8 1012.5 0.0
06/10:30pm 21.4 14.7 9.6 47 6.4 ESE 35 50 19 27 1012.8 1012.5 0.0
06/10:00pm 22.3 16.3 10.1 46 6.7 ESE 32 48 17 26 1012.7 1012.4 0.0
06/09:30pm 23.3 15.9 10.0 43 7.3 ESE 39 56 21 30 1012.5 1012.2 0.0
06/09:00pm 24.9 19.5 9.6 38 8.4 ESE 28 48 15 26 1011.9 1011.6 0.0
06/08:31pm 26.2 20.8 9.5 35 9.2 ESE 28 46 15 25 1011.7 1011.4 0.0
06/08:30pm 26.2 20.7 9.1 34 9.4 ESE 28 37 15 20 1011.7 1011.4 0.0
06/08:00pm 28.0 22.6 7.8 28 10.9 SE 26 35 14 19 1011.3 1011.0 0.0
06/07:30pm 29.1 24.7 6.5 24 12.0 SE 19 26 10 14 1010.9 1010.6 0.0
06/07:00pm 30.1 25.7 6.7 23 12.6 SE 19 24 10 13 1010.8 1010.5 0.0
06/06:30pm 31.4 26.4 6.5 21 13.4 SE 22 32 12 17 1010.7 1010.4 0.0
06/06:00pm 32.4 28.0 7.3 21 13.8 ESE 20 30 11 16 1010.5 1010.2 0.0
06/05:30pm 32.8 27.9 6.9 20 14.2 SE 22 30 12 16 1010.3 1010.0 0.0
06/05:00pm 33.1 27.3 6.4 19 14.5 ESE 26 32 14 17 1010.3 1010.0 0.0
06/04:30pm 33.7 29.3 7.6 20 14.5 ESE 20 35 11 19 1010.3 1010.0 0.0
06/04:00pm 33.6 28.7 6.8 19 14.7 ESE 22 35 12 19 1010.7 1010.4 0.0
06/03:30pm 33.5 28.6 6.7 19 14.7 SE 22 33 12 18 1011.0 1010.7 0.0
06/03:00pm 33.3 28.1 7.3 20 14.4 E 24 33 13 18 1011.3 1011.0 0.0
06/02:30pm 32.3 27.5 7.2 21 13.8 ESE 22 35 12 19 1011.7 1011.4 0.0
06/02:00pm 32.0 27.6 7.6 22 13.4 SE 20 32 11 17 1012.0 1011.7 0.0
06/01:30pm 32.0 26.9 7.6 22 13.4 ESE 24 35 13 19 1012.2 1011.9 0.0
06/01:00pm 30.5 25.4 7.7 24 12.5 ESE 24 33 13 18 1012.6 1012.3 0.0
06/12:30pm 31.0 25.4 8.7 25 12.4 ESE 28 43 15 23 1013.0 1012.7 0.0
06/12:00pm 29.8 24.6 8.8 27 11.7 ESE 26 37 14 20 1013.4 1013.1 0.0
06/11:30am 28.6 22.9 8.3 28 11.1 ESE 28 43 15 23 1013.8 1013.5 0.0
06/11:00am 26.7 21.0 8.2 31 10.0 ESE 28 37 15 20 1014.2 1013.9 0.0
06/10:30am 26.4 21.1 8.4 32 9.8 ESE 26 41 14 22 1014.6 1014.3 0.0
06/10:00am 25.5 19.6 7.6 32 9.5 SE 28 39 15 21 1014.8 1014.5 0.0
06/09:30am 24.2 18.5 8.2 36 8.5 ESE 28 35 15 19 1015.1 1014.8 0.0
06/09:00am 22.1 15.9 7.9 40 7.4 ESE 30 39 16 21 1015.6 1015.3 0.0
06/08:30am 21.4 14.7 8.3 43 6.9 ESE 33 46 18 25 1015.8 1015.5 0.0
06/08:00am 20.4 14.0 8.7 47 6.2 ESE 32 41 17 22 1015.9 1015.6 0.0
06/07:30am 19.3 13.4 8.9 51 5.5 ESE 30 44 16 24 1015.8 1015.5 0.0
06/07:00am 18.4 12.2 9.5 56 4.7 SE 32 41 17 22 1015.8 1015.5 0.0
06/06:30am 17.6 12.3 9.8 60 4.1 ESE 28 35 15 19 1015.7 1015.4 0.0
06/06:00am 17.0 11.3 9.7 62 3.8 ESE 30 43 16 23 1015.5 1015.2 0.0
06/05:30am 16.7 10.9 9.6 63 3.7 ESE 30 46 16 25 1015.3 1015.0 0.0
06/05:17am 16.7 12.0 9.4 62 3.8 ESE 24 43 13 23 1015.2 1014.9 0.0
06/05:00am 16.2 13.2 9.2 63 3.6 ESE 15 17 8 9 1015.0 1014.7 0.0
06/04:30am 16.5 13.0 8.7 60 4.0 SE 17 20 9 11 1014.4 1014.1 0.0
06/04:00am 17.3 13.6 7.9 54 4.8 SE 17 24 9 13 1014.2 1013.9 0.0
06/03:30am 18.6 12.8 8.0 50 5.4 ESE 28 41 15 22 1014.1 1013.8 0.0
06/03:00am 19.1 14.5 8.1 49 5.7 ESE 22 33 12 18 1014.1 1013.8 0.0
06/02:30am 19.8 14.1 8.5 48 5.9 ESE 28 37 15 20 1014.0 1013.7 0.0
06/02:00am 20.6 16.0 9.8 50 5.8 ESE 24 41 13 22 1013.9 1013.6 0.0
06/01:30am 21.2 17.0 11.0 52 5.6 SE 24 35 13 19 1013.7 1013.4 0.0
06/01:00am 21.7 18.1 11.7 53 5.6 SE 22 32 12 17 1013.7 1013.4 0.0
06/12:30am 21.5 18.5 11.8 54 5.4 SE 19 24 10 13 1013.6 1013.3 0.0
06/12:00am 20.4 17.9 12.4 60 4.5 SE 17 22 9 12 1013.6 1013.3 0.0
 
Date/Time
WST
Temp
°C
App
Temp
°C
Dew
Point
°C
Rel
Hum
%
Delta-T
°C
Wind Press
QNH
hPa
Press
MSL
hPa
Rain since
9am
mm
Dir  Spd
km/h
Gust
km/h
Spd
kts
Gust
kts
05/11:30pm 19.2 17.4 13.4 69 3.3 SSE 15 19 8 10 1013.5 1013.2 0.0
05/11:00pm 18.1 18.0 13.8 76 2.5 SSE 7 11 4 6 1013.5 1013.2 0.0
05/10:30pm 18.8 18.4 14.1 74 2.7 S 9 13 5 7 1013.3 1013.0 0.0
05/10:00pm 19.8 18.7 14.2 70 3.2 SSW 13 15 7 8 1013.5 1013.2 0.0
05/09:30pm 20.3 19.5 14.0 67 3.7 SSW 11 13 6 7 1013.4 1013.1 0.0
05/09:00pm 20.8 20.0 14.0 65 4.0 SSW 11 15 6 8 1013.3 1013.0 0.0
05/08:30pm 21.4 19.4 13.8 62 4.4 SSW 17 20 9 11 1013.2 1012.9 0.0
05/08:00pm 21.8 19.2 13.9 60 4.6 SSW 20 26 11 14 1013.0 1012.7 0.0
05/07:30pm 22.5 19.4 13.3 56 5.3 SSW 22 30 12 16 1013.1 1012.8 0.0
05/07:00pm 23.7 19.4 12.0 47 6.7 SSW 26 35 14 19 1013.0 1012.7 0.0
05/06:30pm 24.8 19.8 11.0 42 7.8 SSW 28 41 15 22 1012.8 1012.5 0.0
05/06:00pm 26.3 20.5 9.6 35 9.2 SSW 30 41 16 22 1012.6 1012.3 0.0
05/05:30pm 28.0 21.9 8.3 29 10.7 SSW 30 44 16 24 1012.3 1012.0 0.0
05/05:08pm 28.7 22.1 8.4 28 11.1 SSW 33 52 18 28 1012.1 1011.8 0.0
05/05:00pm 28.8 22.2 8.5 28 11.2 SSW 33 50 18 27 1012.1 1011.8 0.0
05/04:30pm 29.5 22.4 8.0 26 11.8 SSW 35 50 19 27 1012.0 1011.7 0.0
05/04:00pm 29.8 22.6 9.3 28 11.5 SSW 37 50 20 27 1012.0 1011.7 0.0
05/03:30pm 30.0 23.5 10.5 30 11.1 SSW 35 44 19 24 1012.1 1011.8 0.0
05/03:00pm 30.0 22.8 10.5 30 11.1 SW 39 48 21 26 1012.2 1011.9 0.0
05/02:30pm 31.1 25.4 11.0 29 11.6 SSW 32 43 17 23 1012.3 1012.0 0.0
05/02:00pm 31.0 25.5 12.4 32 11.0 SW 33 43 18 23 1012.4 1012.1 0.0
05/01:30pm 32.2 27.4 12.9 31 11.6 SW 30 37 16 20 1012.5 1012.2 0.0
05/01:00pm 33.9 28.2 11.1 25 13.4 SW 32 43 17 23 1012.5 1012.2 0.0
05/12:30pm 33.5 29.9 11.9 27 12.8 SSW 22 33 12 18 1012.6 1012.3 0.0
05/12:00pm 33.5 29.3 8.2 21 14.2 S 20 33 11 18 1012.9 1012.6 0.0
05/11:30am 33.0 30.1 9.7 24 13.3 SSW 15 22 8 12 1013.2 1012.9 0.0
05/11:00am 31.5 29.3 10.8 28 12.0 SE 13 22 7 12 1013.7 1013.4 0.0
05/10:30am 31.1 29.1 11.5 30 11.4 ESE 13 20 7 11 1013.9 1013.6 0.0
05/10:00am 29.8 28.5 11.3 32 10.7 ESE 9 17 5 9 1014.3 1014.0 0.0
05/09:30am 28.6 26.9 11.2 34 10.0 SE 11 17 6 9 1014.4 1014.1 0.0
05/09:00am 27.4 25.1 10.6 35 9.5 E 13 20 7 11 1014.8 1014.5 0.0
05/08:30am 26.0 22.6 10.6 38 8.6 E 19 26 10 14 1015.0 1014.7 0.0
05/08:00am 24.4 20.7 10.3 41 7.8 E 20 26 11 14 1015.1 1014.8 0.0
05/07:30am 23.4 19.0 10.5 44 7.1 E 24 30 13 16 1015.0 1014.7 0.0
05/07:00am 22.1 18.6 10.3 47 6.5 ESE 19 24 10 13 1015.1 1014.8 0.0
05/06:30am 20.8 17.7 10.3 51 5.7 ESE 17 22 9 12 1015.0 1014.7 0.0
05/06:00am 19.6 16.5 10.3 55 5.0 ESE 17 20 9 11 1015.0 1014.7 0.0
05/05:30am 18.5 16.1 10.1 58 4.5 ESE 13 17 7 9 1014.9 1014.6 0.0
05/05:00am 18.5 16.1 10.1 58 4.5 SE 13 19 7 10 1014.9 1014.6 0.0
05/04:30am 18.9 16.1 9.9 56 4.8 ESE 15 19 8 10 1014.7 1014.4 0.0
05/04:00am 19.5 16.3 10.0 54 5.1 ESE 17 20 9 11 1014.6 1014.3 0.0
05/03:30am 20.2 16.5 10.0 52 5.5 ESE 20 30 11 16 1014.6 1014.3 0.0
05/03:00am 20.5 16.9 10.0 51 5.7 ESE 19 24 10 13 1014.4 1014.1 0.0
05/02:30am 20.7 16.9 9.9 50 5.8 ESE 20 24 11 13 1014.3 1014.0 0.0
05/02:00am 20.3 17.0 9.5 50 5.8 ESE 17 20 9 11 1014.3 1014.0 0.0
05/01:30am 20.0 16.8 9.9 52 5.4 ESE 17 20 9 11 1014.3 1014.0 0.0
05/01:00am 18.6 16.3 11.9 65 3.7 SE 15 19 8 10 1014.6 1014.3 0.0
05/12:30am 16.4 15.6 12.8 79 2.0 SSE 9 11 5 6 1015.0 1014.7 0.0
05/12:00am 16.5 15.6 12.7 78 2.1 SSE 9 11 5 6 1015.2 1014.9 0.0
 
Date/Time
WST
Temp
°C
App
Temp
°C
Dew
Point
°C
Rel
Hum
%
Delta-T
°C
Wind Press
QNH
hPa
Press
MSL
hPa
Rain since
9am
mm
Dir  Spd
km/h
Gust
km/h
Spd
kts
Gust
kts
04/11:30pm 17.4 16.6 12.9 75 2.5 SSE 9 11 5 6 1015.4 1015.1 0.0
04/11:00pm 18.0 17.3 13.1 73 2.8 SSE 9 9 5 5 1015.6 1015.3 0.0
04/10:30pm 19.0 18.9 13.4 70 3.2 S 6 7 3 4 1015.9 1015.6 0.0
04/10:00pm 19.7 19.1 13.6 68 3.5 S 9 11 5 6 1015.9 1015.6 0.0
04/09:30pm 20.4 19.8 13.6 65 3.9 SSW 9 11 5 6 1015.9 1015.6 0.0
04/09:00pm 21.0 19.9 13.2 61 4.5 SSW 11 13 6 7 1015.6 1015.3 0.0
04/08:30pm 21.7 20.2 13.1 58 4.9 S 13 17 7 9 1015.5 1015.2 0.0
04/08:00pm 22.4 20.6 13.2 56 5.3 S 15 20 8 11 1015.4 1015.1 0.0
04/07:30pm 23.3 21.0 12.9 52 6.0 SSW 17 24 9 13 1015.2 1014.9 0.0
04/07:00pm 24.7 20.6 12.6 47 7.0 SSW 26 41 14 22 1015.0 1014.7 0.0
04/06:30pm 26.5 23.1 12.5 41 8.1 SSW 22 32 12 17 1014.7 1014.4 0.0
04/06:00pm 27.8 23.5 12.2 38 9.1 SSW 26 35 14 19 1014.4 1014.1 0.0
04/05:30pm 28.5 23.4 12.0 36 9.6 SSW 30 39 16 21 1014.2 1013.9 0.0
04/05:00pm 29.0 24.2 12.8 36 9.6 SSW 30 37 16 20 1014.1 1013.8 0.0
04/04:30pm 30.3 26.0 13.1 34 10.3 SW 28 37 15 20 1014.1 1013.8 0.0
04/04:00pm 30.3 25.6 13.1 34 10.3 SSW 30 37 16 20 1014.2 1013.9 0.0
04/03:30pm 31.1 26.1 13.4 34 10.6 SW 32 41 17 22 1014.4 1014.1 0.0
04/03:00pm 32.4 30.4 12.6 30 11.8 SSE 15 24 8 13 1014.6 1014.3 0.0
04/02:30pm 33.5 29.1 7.5 20 14.4 E 20 30 11 16 1014.9 1014.6 0.0
04/02:00pm 32.4 28.3 8.0 22 13.5 ESE 19 28 10 15 1015.1 1014.8 0.0
04/01:30pm 32.2 28.2 8.4 23 13.3 ESE 19 28 10 15 1015.6 1015.3 0.0
04/01:00pm 32.4 28.6 9.9 25 12.9 SE 20 35 11 19 1016.2 1016.0 0.0
04/12:30pm 31.1 26.8 9.3 26 12.3 ESE 22 33 12 18 1016.6 1016.4 0.0
04/12:00pm 30.8 28.1 10.2 28 11.7 ESE 15 24 8 13 1017.0 1016.8 0.0
04/11:30am 29.3 25.7 9.9 30 10.9 ESE 19 30 10 16 1017.7 1017.4 0.0
04/11:00am 28.5 25.0 10.2 32 10.3 ESE 19 28 10 15 1018.0 1017.7 0.0
04/10:30am 27.7 24.1 10.4 34 9.8 E 20 30 11 16 1018.3 1018.0 0.0
04/10:00am 26.1 22.6 10.3 37 8.8 E 19 28 10 15 1018.5 1018.2 0.0
04/09:30am 25.2 21.8 10.6 39 8.2 ESE 19 24 10 13 1019.0 1018.7 0.0
04/09:00am 23.6 19.6 10.3 43 7.3 ESE 22 28 12 15 1019.1 1018.8 0.0
04/08:30am 22.4 17.6 10.2 46 6.7 E 26 32 14 17 1019.3 1019.0 0.0
04/08:00am 21.4 16.2 10.3 49 6.0 E 28 37 15 20 1019.6 1019.3 0.0
04/07:30am 20.6 16.6 10.4 52 5.6 E 22 30 12 16 1019.7 1019.4 0.0
04/07:00am 19.3 14.0 10.0 55 5.0 ESE 28 35 15 19 1019.6 1019.3 0.0
04/06:30am 18.4 13.1 10.0 58 4.5 E 28 35 15 19 1019.5 1019.2 0.0
04/06:00am 17.4 13.6 9.8 61 4.0 ESE 20 28 11 15 1019.8 1019.5 0.0
04/05:30am 16.7 12.5 9.9 64 3.6 ESE 22 32 12 17 1019.8 1019.5 0.0
04/05:00am 16.5 12.9 9.7 64 3.6 ESE 19 28 10 15 1019.9 1019.6 0.0

Other formats

Comma delimited format used in spreadsheet applications
http://www.bom.gov.au/fwo/IDW60801/IDW60801.95612.axf

JavaScript Object Notation format (JSON) in row-major order
http://www.bom.gov.au/fwo/IDW60801/IDW60801.95612.json

Data quality

Most of these data are generated automatically and are frequently updated. Quality checks on data are not normally performed. It is possible for incorrect values to appear. Refer to information at About Latest Weather Observations and please check the disclaimer before using these data.